createdAt,value
2023-02-21T00:01:04.834Z,31.57
2023-02-21T00:03:54.007Z,32.87
2023-02-21T00:32:36.643Z,34.13
2023-02-21T00:36:00.169Z,37.57
2023-02-21T00:38:46.868Z,30.67
2023-02-21T00:41:46.796Z,35.93
2023-02-21T00:44:38.716Z,35.67
2023-02-21T00:47:26.665Z,33.43
2023-02-21T00:50:24.232Z,33.33
2023-02-21T00:53:17.382Z,32.80
2023-02-21T00:56:04.504Z,27.67
2023-02-21T01:17:57.178Z,27.27
2023-02-21T01:20:47.368Z,27.00
2023-02-21T01:23:34.390Z,29.40
2023-02-21T01:26:30.831Z,29.33
2023-02-21T01:29:19.071Z,25.77
2023-02-21T01:32:32.872Z,26.27
2023-02-21T01:35:22.802Z,26.53
2023-02-21T01:38:16.993Z,26.07
2023-02-21T01:41:07.485Z,25.77
2023-02-21T02:03:28.210Z,23.23
2023-02-21T02:06:27.733Z,23.43
2023-02-21T02:09:15.059Z,24.73
2023-02-21T02:12:22.453Z,22.17
2023-02-21T02:15:22.184Z,23.03
2023-02-21T02:18:36.520Z,21.73
2023-02-21T02:22:00.105Z,19.93
2023-02-21T02:25:01.019Z,18.53
2023-02-21T02:28:03.311Z,22.03
2023-02-21T02:36:33.063Z,18.13
2023-02-21T02:39:23.242Z,17.70
2023-02-21T02:42:11.401Z,17.30
2023-02-21T02:45:20.420Z,15.53
2023-02-21T02:47:59.970Z,15.07
2023-02-21T02:51:15.852Z,14.63
2023-02-21T02:54:03.887Z,17.50
2023-02-21T02:56:37.173Z,16.33
2023-02-21T03:26:14.245Z,12.27
2023-02-21T03:28:54.914Z,10.77
2023-02-21T03:31:29.763Z,14.33
2023-02-21T03:34:03.782Z,10.53
2023-02-21T03:36:41.862Z,11.83
2023-02-21T03:39:14.227Z,11.37
2023-02-21T03:41:55.511Z,12.53
2023-02-21T03:44:32.293Z,11.73
2023-02-21T03:47:11.227Z,10.70
2023-02-21T03:49:48.705Z,11.13
2023-02-21T04:14:40.180Z,10.23
2023-02-21T04:17:19.714Z,8.87
2023-02-21T04:19:53.651Z,9.63
2023-02-21T04:22:33.171Z,9.90
2023-02-21T04:25:05.545Z,9.63
2023-02-21T04:27:39.452Z,11.23
2023-02-21T04:30:14.277Z,7.60
2023-02-21T04:32:53.310Z,9.67
2023-02-21T04:35:26.152Z,10.67
2023-02-21T04:37:57.344Z,10.10
2023-02-21T04:43:38.190Z,9.50
2023-02-21T04:46:12.751Z,9.07
2023-02-21T04:48:44.004Z,8.80
2023-02-21T04:51:18.206Z,9.93
2023-02-21T04:54:09.025Z,9.53
2023-02-21T04:56:45.105Z,11.33
2023-02-21T04:59:22.272Z,10.37
2023-02-21T05:01:55.554Z,10.07
2023-02-21T05:20:41.050Z,11.03
2023-02-21T05:23:14.229Z,12.37
2023-02-21T05:25:47.839Z,10.63
2023-02-21T05:28:16.735Z,9.80
2023-02-21T05:31:02.411Z,11.47
2023-02-21T05:33:47.818Z,11.93
2023-02-21T05:36:18.320Z,11.20
2023-02-21T05:39:17.250Z,11.60
2023-02-21T06:34:26.813Z,11.13
2023-02-21T06:36:58.673Z,13.37
2023-02-21T06:39:46.625Z,10.90
2023-02-21T06:42:16.329Z,11.13
2023-02-21T06:44:59.641Z,11.77
2023-02-21T06:47:35.919Z,11.63
2023-02-21T06:50:10.902Z,13.83
2023-02-21T06:52:47.940Z,14.17
2023-02-21T07:34:19.237Z,12.73
2023-02-21T07:36:55.507Z,12.60
2023-02-21T07:39:28.608Z,11.33
2023-02-21T07:42:00.875Z,10.33
2023-02-21T07:44:32.507Z,10.70
2023-02-21T07:47:03.967Z,11.23
2023-02-21T07:49:47.810Z,12.90
2023-02-21T07:52:24.790Z,10.47
2023-02-21T08:08:37.406Z,12.17
2023-02-21T08:11:09.780Z,9.53
2023-02-21T08:13:41.614Z,11.20
2023-02-21T08:16:14.844Z,10.53
2023-02-21T08:18:50.576Z,10.30
2023-02-21T08:21:31.333Z,9.67
2023-02-21T08:24:07.294Z,10.60
2023-02-21T08:52:21.516Z,9.77
2023-02-21T08:55:06.585Z,10.27
2023-02-21T08:57:45.306Z,9.73
2023-02-21T09:00:31.047Z,10.07
2023-02-21T09:03:07.780Z,10.87
2023-02-21T09:09:13.859Z,9.77
2023-02-21T09:11:48.986Z,9.80
2023-02-21T09:14:30.572Z,8.67
2023-02-21T09:20:28.160Z,8.77
2023-02-21T09:22:57.723Z,9.23
2023-02-21T09:25:33.836Z,8.93
2023-02-21T09:28:19.495Z,8.80
2023-02-21T09:30:53.429Z,8.10
2023-02-21T09:33:32.478Z,8.27
2023-02-21T09:36:31.048Z,9.77
2023-02-21T09:39:53.285Z,9.33
2023-02-21T09:42:28.934Z,9.43
2023-02-21T09:49:12.310Z,8.33
2023-02-21T09:52:29.820Z,9.10
2023-02-21T10:23:53.784Z,6.63
2023-02-21T10:42:45.139Z,6.07
2023-02-21T10:47:17.192Z,6.67
2023-02-21T10:53:49.691Z,7.10
2023-02-21T10:57:19.081Z,7.00
2023-02-21T12:04:14.247Z,5.60
2023-02-21T13:11:43.134Z,7.10
2023-02-21T13:19:19.575Z,6.17
2023-02-21T13:30:13.668Z,8.57
2023-02-21T13:45:31.117Z,7.33
2023-02-21T13:49:18.361Z,7.13
2023-02-21T13:52:00.556Z,6.77
2023-02-21T14:23:56.409Z,6.83
2023-02-21T14:26:48.413Z,6.63
2023-02-21T14:33:18.052Z,7.10
2023-02-21T14:36:57.080Z,6.77
2023-02-21T14:39:38.671Z,7.63
2023-02-21T14:43:01.827Z,7.13
2023-02-21T14:46:26.287Z,6.83
2023-02-21T14:49:55.432Z,7.50
2023-02-21T14:57:14.523Z,5.90
2023-02-21T15:28:09.803Z,4.10
2023-02-21T15:31:05.996Z,4.90
2023-02-21T15:34:01.872Z,4.37
2023-02-21T15:37:27.392Z,4.93
2023-02-21T15:48:00.433Z,4.37
2023-02-21T15:54:29.880Z,3.90
2023-02-21T15:58:27.124Z,4.17
2023-02-21T16:02:32.831Z,4.37
2023-02-21T18:15:06.620Z,3.90
2023-02-21T19:34:27.778Z,2.97
2023-02-21T19:41:40.167Z,2.93
2023-02-21T20:41:59.734Z,4.57
2023-02-21T20:44:45.343Z,5.50
2023-02-21T20:48:10.035Z,5.40
2023-02-21T21:01:03.721Z,5.27
2023-02-21T21:07:06.557Z,4.80
2023-02-21T22:10:43.333Z,6.23
2023-02-21T22:25:15.484Z,5.80
2023-02-21T22:52:37.075Z,5.93
2023-02-21T22:56:03.014Z,6.87
2023-02-21T23:12:51.221Z,6.80
2023-02-21T23:16:03.311Z,7.13
2023-02-21T23:42:21.132Z,7.13
2023-02-21T23:45:05.177Z,9.30
2023-02-21T23:48:01.412Z,11.80
2023-02-21T23:51:15.074Z,14.30
